createdAt,value
2017-02-03T00:00:06.438Z,53.5
2017-02-03T00:10:06.405Z,53
2017-02-03T00:20:06.434Z,53
2017-02-03T00:30:06.403Z,53
2017-02-03T00:40:06.402Z,53
2017-02-03T00:50:06.407Z,53
2017-02-03T01:00:06.399Z,53
2017-02-03T01:10:01.339Z,53
2017-02-03T01:20:12.167Z,53
2017-02-03T01:30:16.401Z,53
2017-02-03T01:40:16.433Z,53.5
2017-02-03T01:50:16.401Z,53
2017-02-03T02:00:16.401Z,53.5
2017-02-03T02:10:16.406Z,53
2017-02-03T02:20:07.124Z,53
2017-02-03T02:30:00.802Z,53
2017-02-03T02:40:17.666Z,52.5
2017-02-03T02:50:16.397Z,53
2017-02-03T03:00:16.407Z,53
2017-02-03T03:10:16.443Z,53
2017-02-03T03:20:06.395Z,51.9
2017-02-03T03:30:06.401Z,53
2017-02-03T03:40:06.401Z,52.5
2017-02-03T03:50:04.970Z,51.9
2017-02-03T04:00:06.432Z,52.5
2017-02-03T04:10:06.402Z,52.5
2017-02-03T04:20:06.403Z,53
2017-02-03T04:30:02.675Z,53
2017-02-03T04:40:06.403Z,53
2017-02-03T04:50:06.414Z,53
2017-02-03T05:00:06.444Z,53
2017-02-03T05:10:06.436Z,53
2017-02-03T05:20:06.399Z,53
2017-02-03T05:30:06.403Z,53
2017-02-03T05:40:06.402Z,52.5
2017-02-03T05:50:01.633Z,53
2017-02-03T06:00:06.436Z,53
2017-02-03T06:10:06.443Z,53
2017-02-03T06:20:06.407Z,53
2017-02-03T06:30:06.406Z,53
2017-02-03T06:40:06.444Z,53
2017-02-03T06:50:06.443Z,52.5
2017-02-03T07:00:06.438Z,53
2017-02-03T07:10:06.419Z,53
2017-02-03T07:20:06.437Z,53
2017-02-03T07:30:06.566Z,53
2017-02-03T07:40:06.405Z,53
2017-02-03T07:50:06.444Z,53.5
2017-02-03T08:00:06.720Z,53
2017-02-03T08:10:06.695Z,53
2017-02-03T08:20:06.446Z,53
2017-02-03T08:30:06.415Z,53
2017-02-03T08:40:06.407Z,53
2017-02-03T08:50:06.411Z,53
2017-02-03T09:00:06.433Z,53
2017-02-03T09:10:06.400Z,53.5
2017-02-03T09:20:06.442Z,53.5
2017-02-03T09:30:06.411Z,53.5
2017-02-03T09:40:06.398Z,53.5
2017-02-03T09:50:06.400Z,53.5
2017-02-03T10:00:06.403Z,53
2017-02-03T10:10:06.433Z,53.5
2017-02-03T10:20:06.403Z,54.1
2017-02-03T10:30:06.407Z,54.1
2017-02-03T10:40:06.404Z,54.1
2017-02-03T10:50:06.397Z,54.1
2017-02-03T11:00:06.431Z,54.1
2017-02-03T11:10:06.404Z,54.1
2017-02-03T11:20:06.406Z,54.1
2017-02-03T11:30:05.913Z,54.1
2017-02-03T11:40:06.401Z,54.1
2017-02-03T11:50:06.402Z,54.1
2017-02-03T12:00:06.404Z,54.1
2017-02-03T12:10:06.403Z,54.1
2017-02-03T12:20:06.442Z,54.1
2017-02-03T12:30:02.302Z,55.1
2017-02-03T12:40:06.406Z,54.1
2017-02-03T12:50:06.450Z,54.1
2017-02-03T13:00:06.437Z,54.1
2017-02-03T13:10:06.404Z,55.1
2017-02-03T13:20:06.404Z,55.1
2017-02-03T13:30:06.405Z,55.1
2017-02-03T13:40:06.438Z,55.1
2017-02-03T13:50:06.441Z,55.1
2017-02-03T14:00:06.441Z,55.1
2017-02-03T14:10:06.440Z,55.1
2017-02-03T14:20:06.441Z,55.1
2017-02-03T14:30:06.408Z,55.1
2017-02-03T14:40:06.440Z,54.6
2017-02-03T14:50:06.407Z,55.7
2017-02-03T15:00:06.402Z,55.1
2017-02-03T15:10:06.232Z,55.7
2017-02-03T15:20:06.408Z,55.1
2017-02-03T15:30:06.510Z,55.1
2017-02-03T15:40:06.406Z,55.1
2017-02-03T15:50:02.964Z,55.7
2017-02-03T16:00:06.409Z,55.1
2017-02-03T16:10:06.410Z,55.1
2017-02-03T16:20:06.405Z,55.1
2017-02-03T16:30:03.622Z,54.6
2017-02-03T16:40:06.410Z,55.7
2017-02-03T16:50:06.414Z,55.1
2017-02-03T17:00:06.435Z,55.1
2017-02-03T17:10:06.402Z,55.1
2017-02-03T17:20:06.461Z,55.1
2017-02-03T17:30:06.409Z,55.1
2017-02-03T17:40:06.401Z,55.1
2017-02-03T17:50:06.399Z,55.1
2017-02-03T18:00:06.469Z,55.1
2017-02-03T18:10:06.435Z,54.1
2017-02-03T18:20:06.401Z,54.6
2017-02-03T18:30:02.297Z,54.6
2017-02-03T18:40:06.398Z,55.1
2017-02-03T18:50:06.434Z,55.1
2017-02-03T19:00:06.501Z,55.1
2017-02-03T19:10:02.927Z,54.1
2017-02-03T19:20:06.442Z,54.1
2017-02-03T19:30:06.417Z,55.1
2017-02-03T19:40:06.407Z,54.1
2017-02-03T19:50:06.411Z,54.6
2017-02-03T20:00:06.437Z,54.1
2017-02-03T20:10:06.491Z,54.1
2017-02-03T20:20:06.423Z,53.5
2017-02-03T20:30:06.438Z,54.1
2017-02-03T20:40:06.470Z,54.1
2017-02-03T20:50:06.451Z,54.1
2017-02-03T21:00:06.438Z,54.1
2017-02-03T21:10:06.454Z,54.1
2017-02-03T21:20:06.407Z,54.6
2017-02-03T21:30:06.445Z,54.1
2017-02-03T21:40:06.443Z,54.1
2017-02-03T21:50:06.409Z,54.1
2017-02-03T22:00:06.409Z,53.5
2017-02-03T22:10:06.409Z,54.1
2017-02-03T22:20:06.449Z,54.1
2017-02-03T22:30:06.437Z,54.1
2017-02-03T22:40:06.435Z,53.5
2017-02-03T22:50:06.437Z,54.1
2017-02-03T23:00:06.508Z,53.5
2017-02-03T23:10:06.403Z,53.5
2017-02-03T23:20:06.434Z,53.5
2017-02-03T23:30:06.443Z,53.5
2017-02-03T23:40:06.404Z,53.5
2017-02-03T23:50:06.407Z,53.5
